Time,TemperatureF,DewpointF,PressureIn,WindDirection,WindDirectionDegrees,WindSpeedMPH,WindSpeedGustMPH,Humidity,HourlyPrecipIn,Conditions,Clouds,dailyrainin,SoftwareType,DateUTC
2013-03-22 00:02:00,29.2,20.0,29.72,South,185,0.0,0.0,68,0.00,,---,0.00,VWS V14.01,2013-03-22 06:02:00,
2013-03-22 00:07:00,28.8,19.6,29.72,South,184,4.0,5.0,68,0.00,,---,0.00,VWS V14.01,2013-03-22 06:07:00,
2013-03-22 00:12:00,28.1,19.6,29.71,South,185,0.0,0.0,70,0.00,,---,0.00,VWS V14.01,2013-03-22 06:12:00,
2013-03-22 00:17:00,28.0,20.2,29.71,South,185,0.0,1.0,72,0.00,,---,0.00,VWS V14.01,2013-03-22 06:17:00,
2013-03-22 08:30:00,25.6,22.3,29.82,West,270,0.0,0.0,87,0.00,,---,0.00,VWS V14.01,2013-03-22 14:30:00,
2013-03-22 08:46:00,26.2,22.9,29.82,West,265,0.0,0.0,87,0.00,,---,0.00,VWS V14.01,2013-03-22 14:46:00,
2013-03-22 08:51:00,26.6,23.3,29.82,West,265,0.0,1.0,87,0.00,,---,0.00,VWS V14.01,2013-03-22 14:51:00,
2013-03-22 08:57:00,26.9,23.6,29.82,West,265,0.0,1.0,87,0.00,,---,0.00,VWS V14.01,2013-03-22 14:57:00,
2013-03-22 09:02:00,27.4,24.0,29.82,West,265,0.0,0.0,87,0.00,,---,0.00,VWS V14.01,2013-03-22 15:02:00,
2013-03-22 09:07:00,27.8,24.2,29.82,West,265,3.0,3.0,86,0.00,,---,0.00,VWS V14.01,2013-03-22 15:07:00,
2013-03-22 09:12:00,28.1,24.5,29.81,West,265,2.0,3.0,86,0.00,,---,0.00,VWS V14.01,2013-03-22 15:12:00,
2013-03-22 09:17:00,28.9,25.0,29.80,West,265,0.0,0.0,85,0.00,,---,0.00,VWS V14.01,2013-03-22 15:17:00,
2013-03-22 09:22:00,29.3,24.8,29.80,West,265,2.0,2.0,83,0.00,,---,0.00,VWS V14.01,2013-03-22 15:22:00,
2013-03-22 09:27:00,29.9,25.4,29.80,West,265,0.0,0.0,83,0.00,,---,0.00,VWS V14.01,2013-03-22 15:27:00,
2013-03-22 09:32:00,31.2,26.1,29.77,West,265,4.0,4.0,81,0.00,,---,0.00,VWS V14.01,2013-03-22 15:32:00,
2013-03-22 09:37:00,32.0,25.6,29.77,West,265,0.0,2.0,77,0.00,,---,0.00,VWS V14.01,2013-03-22 15:37:00,
2013-03-22 09:42:00,33.5,26.4,29.75,West,265,0.0,0.0,75,0.00,,---,0.00,VWS V14.01,2013-03-22 15:42:00,
2013-03-22 09:47:00,34.7,25.6,29.73,WSW,258,0.0,4.0,69,0.00,,---,0.00,VWS V14.01,2013-03-22 15:47:00,
2013-03-22 09:52:00,35.7,25.1,29.72,WSW,258,2.0,2.0,65,0.00,,---,0.00,VWS V14.01,2013-03-22 15:52:00,
2013-03-22 09:57:00,36.5,22.3,29.73,WSW,257,0.0,0.0,56,0.00,,---,0.00,VWS V14.01,2013-03-22 15:57:00,
2013-03-22 10:02:00,37.5,22.4,29.71,SE,140,1.0,2.0,54,0.00,,---,0.00,VWS V14.01,2013-03-22 16:02:00,
2013-03-22 10:07:00,37.6,21.6,29.72,SSE,152,0.0,0.0,52,0.00,,---,0.00,VWS V14.01,2013-03-22 16:07:00,
2013-03-22 10:12:00,37.7,20.8,29.72,SE,142,4.0,5.0,50,0.00,,---,0.00,VWS V14.01,2013-03-22 16:12:00,
2013-03-22 10:17:00,37.8,20.4,29.72,SE,142,0.0,2.0,49,0.00,,---,0.00,VWS V14.01,2013-03-22 16:17:00,
2013-03-22 10:22:00,38.3,20.4,29.72,SE,142,1.0,1.0,48,0.00,,---,0.00,VWS V14.01,2013-03-22 16:22:00,
2013-03-22 10:27:00,38.4,20.4,29.71,SE,141,3.0,3.0,48,0.00,,---,0.00,VWS V14.01,2013-03-22 16:27:00,
2013-03-22 10:32:00,38.6,19.1,29.69,SE,144,2.0,2.0,45,0.00,,---,0.00,VWS V14.01,2013-03-22 16:32:00,
2013-03-22 10:37:00,38.6,19.6,29.69,SE,130,0.0,5.0,46,0.00,,---,0.00,VWS V14.01,2013-03-22 16:37:00,
2013-03-22 10:42:00,38.6,19.1,29.69,ESE,115,0.0,6.0,45,0.00,,---,0.00,VWS V14.01,2013-03-22 16:42:00,
2013-03-22 10:47:00,39.3,20.3,29.68,ESE,118,1.0,5.0,46,0.00,,---,0.00,VWS V14.01,2013-03-22 16:47:00,
2013-03-22 10:52:00,39.3,19.2,29.68,ESE,117,0.0,4.0,44,0.00,,---,0.00,VWS V14.01,2013-03-22 16:52:00,
2013-03-22 10:57:00,39.3,18.7,29.67,ESE,118,0.0,7.0,43,0.00,,---,0.00,VWS V14.01,2013-03-22 16:57:00,
2013-03-22 11:02:00,39.7,19.6,29.68,ESE,122,1.0,6.0,44,0.00,,---,0.00,VWS V14.01,2013-03-22 17:02:00,
2013-03-22 11:07:00,39.9,17.5,29.69,SE,133,5.0,7.0,40,0.00,,---,0.00,VWS V14.01,2013-03-22 17:07:00,
2013-03-22 11:12:00,40.4,18.0,29.69,SE,139,3.0,3.0,40,0.00,,---,0.00,VWS V14.01,2013-03-22 17:12:00,
2013-03-22 11:17:00,40.5,16.9,29.67,WSW,249,6.0,7.0,38,0.00,,---,0.00,VWS V14.01,2013-03-22 17:17:00,
2013-03-22 11:22:00,40.4,9.9,29.69,SW,219,9.0,14.0,28,0.00,,---,0.00,VWS V14.01,2013-03-22 17:22:00,
2013-03-22 11:27:00,40.2,8.9,29.69,SW,234,4.0,9.0,27,0.00,,---,0.00,VWS V14.01,2013-03-22 17:27:00,
2013-03-22 11:32:00,40.6,10.1,29.69,West,262,6.0,9.0,28,0.00,,---,0.00,VWS V14.01,2013-03-22 17:32:00,
2013-03-22 11:37:00,41.5,9.2,29.67,WSW,244,11.0,11.0,26,0.00,,---,0.00,VWS V14.01,2013-03-22 17:37:00,
2013-03-22 11:42:00,41.1,9.7,29.66,WSW,244,15.0,18.0,27,0.00,,---,0.00,VWS V14.01,2013-03-22 17:42:00,
2013-03-22 11:47:00,41.1,8.0,29.66,WSW,253,12.0,12.0,25,0.00,,---,0.00,VWS V14.01,2013-03-22 17:47:00,
2013-03-22 11:52:00,41.7,8.5,29.66,SW,229,7.0,18.0,25,0.00,,---,0.00,VWS V14.01,2013-03-22 17:52:00,
2013-03-22 11:57:00,41.1,19.2,29.66,West,265,9.0,13.0,41,0.00,,---,0.00,VWS V14.01,2013-03-22 17:57:00,
2013-03-22 12:02:00,40.6,13.8,29.65,West,265,5.0,10.0,33,0.00,,---,0.00,VWS V14.01,2013-03-22 18:02:00,
2013-03-22 12:07:00,41.6,9.3,29.65,West,259,4.0,13.0,26,0.00,,---,0.00,VWS V14.01,2013-03-22 18:07:00,
2013-03-22 12:12:00,42.5,9.2,29.65,SW,233,16.0,19.0,25,0.00,,---,0.00,VWS V14.01,2013-03-22 18:12:00,
2013-03-22 12:17:00,42.2,8.9,29.65,SSW,195,4.0,13.0,25,0.00,,---,0.00,VWS V14.01,2013-03-22 18:17:00,
2013-03-22 12:22:00,42.2,8.9,29.64,WSW,256,11.0,13.0,25,0.00,,---,0.00,VWS V14.01,2013-03-22 18:22:00,
2013-03-22 12:27:00,42.3,9.9,29.63,WSW,241,16.0,22.0,26,0.00,,---,0.00,VWS V14.01,2013-03-22 18:27:00,
2013-03-22 12:32:00,42.6,9.3,29.63,SSW,213,19.0,21.0,25,0.00,,---,0.00,VWS V14.01,2013-03-22 18:32:00,
2013-03-22 12:37:00,42.5,9.2,29.63,South,188,12.0,14.0,25,0.00,,---,0.00,VWS V14.01,2013-03-22 18:37:00,
2013-03-22 12:43:00,42.5,9.2,29.63,West,276,9.0,13.0,25,0.00,,---,0.00,VWS V14.01,2013-03-22 18:43:00,
2013-03-22 12:48:00,42.5,10.1,29.63,WSW,238,12.0,15.0,26,0.00,,---,0.00,VWS V14.01,2013-03-22 18:48:00,
2013-03-22 12:53:00,42.6,9.3,29.63,WSW,249,13.0,20.0,25,0.00,,---,0.00,VWS V14.01,2013-03-22 18:53:00,
2013-03-22 12:58:00,42.6,9.3,29.63,WSW,253,15.0,16.0,25,0.00,,---,0.00,VWS V14.01,2013-03-22 18:58:00,
2013-03-22 13:03:00,42.7,10.2,29.63,West,265,11.0,13.0,26,0.00,,---,0.00,VWS V14.01,2013-03-22 19:03:00,
2013-03-22 13:08:00,42.8,10.3,29.62,WSW,244,6.0,14.0,26,0.00,,---,0.00,VWS V14.01,2013-03-22 19:08:00,
2013-03-22 13:13:00,43.1,9.7,29.62,WSW,245,11.0,13.0,25,0.00,,---,0.00,VWS V14.01,2013-03-22 19:13:00,
2013-03-22 13:18:00,43.5,10.0,29.62,WSW,250,8.0,24.0,25,0.00,,---,0.00,VWS V14.01,2013-03-22 19:18:00,
2013-03-22 13:23:00,43.0,9.6,29.61,SSW,213,0.0,11.0,25,0.00,,---,0.00,VWS V14.01,2013-03-22 19:23:00,
2013-03-22 13:28:00,43.3,10.7,29.60,West,269,7.0,11.0,26,0.00,,---,0.00,VWS V14.01,2013-03-22 19:28:00,
2013-03-22 13:33:00,44.6,11.9,29.59,West,265,12.0,14.0,26,0.00,,---,0.00,VWS V14.01,2013-03-22 19:33:00,
2013-03-22 13:38:00,44.0,10.4,29.60,SW,230,5.0,14.0,25,0.00,,---,0.00,VWS V14.01,2013-03-22 19:38:00,
2013-03-22 13:43:00,44.3,10.7,29.59,WSW,246,4.0,10.0,25,0.00,,---,0.00,VWS V14.01,2013-03-22 19:43:00,
2013-03-22 13:48:00,44.6,11.0,29.57,WSW,246,7.0,7.0,25,0.00,,---,0.00,VWS V14.01,2013-03-22 19:48:00,
2013-03-22 13:53:00,43.9,10.4,29.59,SSW,203,8.0,16.0,25,0.00,,---,0.00,VWS V14.01,2013-03-22 19:53:00,
2013-03-22 13:58:00,43.3,10.7,29.59,SW,232,11.0,13.0,26,0.00,,---,0.00,VWS V14.01,2013-03-22 19:58:00,
2013-03-22 14:03:00,42.8,12.0,29.59,WNW,294,8.0,21.0,28,0.00,,---,0.00,VWS V14.01,2013-03-22 20:03:00,
2013-03-22 14:08:00,42.4,11.6,29.60,WNW,288,7.0,12.0,28,0.00,,---,0.00,VWS V14.01,2013-03-22 20:08:00,
2013-03-22 14:13:00,42.5,12.5,29.57,WNW,293,8.0,19.0,29,0.00,,---,0.00,VWS V14.01,2013-03-22 20:13:00,
2013-03-22 14:18:00,42.1,13.7,29.59,NNW,342,12.0,18.0,31,0.00,,---,0.00,VWS V14.01,2013-03-22 20:18:00,
2013-03-22 14:23:00,41.5,12.4,29.59,West,265,8.0,15.0,30,0.00,,---,0.00,VWS V14.01,2013-03-22 20:23:00,
2013-03-22 14:28:00,41.4,13.8,29.58,NNW,344,6.0,9.0,32,0.00,,---,0.00,VWS V14.01,2013-03-22 20:28:00,
2013-03-22 14:33:00,41.7,14.0,29.57,NNW,347,11.0,11.0,32,0.00,,---,0.00,VWS V14.01,2013-03-22 20:33:00,
2013-03-22 14:38:00,41.3,13.7,29.57,NW,323,4.0,6.0,32,0.00,,---,0.00,VWS V14.01,2013-03-22 20:38:00,
2013-03-22 14:43:00,42.0,12.8,29.56,NNW,338,2.0,4.0,30,0.00,,---,0.00,VWS V14.01,2013-03-22 20:43:00,
2013-03-22 14:48:00,42.4,13.2,29.56,ENE,78,0.0,6.0,30,0.00,,---,0.00,VWS V14.01,2013-03-22 20:48:00,
2013-03-22 14:53:00,43.2,13.1,29.54,NNW,341,1.0,6.0,29,0.00,,---,0.00,VWS V14.01,2013-03-22 20:53:00,
2013-03-22 14:58:00,42.8,12.8,29.54,NW,324,1.0,11.0,29,0.00,,---,0.00,VWS V14.01,2013-03-22 20:58:00,
2013-03-22 15:03:00,43.3,13.2,29.54,NW,323,1.0,1.0,29,0.00,,---,0.00,VWS V14.01,2013-03-22 21:03:00,
2013-03-22 15:08:00,44.2,12.4,29.54,East,99,1.0,4.0,27,0.00,,---,0.00,VWS V14.01,2013-03-22 21:08:00,
2013-03-22 15:13:00,45.1,13.1,29.55,NNE,32,0.0,7.0,27,0.00,,---,0.00,VWS V14.01,2013-03-22 21:13:00,
2013-03-22 15:18:00,45.7,13.6,29.55,NNE,32,0.0,1.0,27,0.00,,---,0.00,VWS V14.01,2013-03-22 21:18:00,
2013-03-22 15:23:00,46.0,13.1,29.53,NNE,32,0.0,2.0,26,0.00,,---,0.00,VWS V14.01,2013-03-22 21:23:00,
2013-03-22 15:28:00,45.0,13.1,29.54,ENE,60,5.0,8.0,27,0.00,,---,0.00,VWS V14.01,2013-03-22 21:28:00,
2013-03-22 15:33:00,44.3,12.4,29.55,NE,46,0.0,3.0,27,0.00,,---,0.00,VWS V14.01,2013-03-22 21:33:00,
2013-03-22 15:38:00,44.4,12.5,29.55,ESE,122,0.0,5.0,27,0.00,,---,0.00,VWS V14.01,2013-03-22 21:38:00,
2013-03-22 15:43:00,44.7,12.8,29.55,SW,223,9.0,10.0,27,0.00,,---,0.00,VWS V14.01,2013-03-22 21:43:00,
2013-03-22 15:49:00,44.2,12.4,29.55,WSW,237,9.0,12.0,27,0.00,,---,0.00,VWS V14.01,2013-03-22 21:49:00,
2013-03-22 15:54:00,44.1,14.7,29.55,SW,214,6.0,9.0,30,0.00,,---,0.00,VWS V14.01,2013-03-22 21:54:00,
2013-03-22 15:59:00,44.3,15.6,29.56,West,275,8.0,14.0,31,0.00,,---,0.00,VWS V14.01,2013-03-22 21:59:00,
2013-03-22 16:04:00,45.3,15.7,29.55,WSW,257,9.0,15.0,30,0.00,,---,0.00,VWS V14.01,2013-03-22 22:04:00,
2013-03-22 16:09:00,45.3,14.1,29.53,West,263,13.0,30.0,28,0.00,,---,0.00,VWS V14.01,2013-03-22 22:09:00,
2013-03-22 16:14:00,44.8,14.5,29.53,SW,222,9.0,23.0,29,0.00,,---,0.00,VWS V14.01,2013-03-22 22:14:00,
2013-03-22 16:19:00,44.5,13.4,29.52,WSW,248,7.0,14.0,28,0.00,,---,0.00,VWS V14.01,2013-03-22 22:19:00,
2013-03-22 16:24:00,45.1,14.0,29.53,SW,226,16.0,25.0,28,0.00,,---,0.00,VWS V14.01,2013-03-22 22:24:00,
2013-03-22 16:29:00,45.0,13.1,29.53,West,273,11.0,16.0,27,0.00,,---,0.00,VWS V14.01,2013-03-22 22:29:00,
2013-03-22 16:34:00,45.6,14.4,29.52,WSW,245,9.0,12.0,28,0.00,,---,0.00,VWS V14.01,2013-03-22 22:34:00,
2013-03-22 16:39:00,46.1,13.1,29.52,West,271,4.0,12.0,26,0.00,,---,0.00,VWS V14.01,2013-03-22 22:39:00,
2013-03-22 16:44:00,45.9,13.8,29.53,West,281,19.0,23.0,27,0.00,,---,0.00,VWS V14.01,2013-03-22 22:44:00,
2013-03-22 16:49:00,45.2,10.6,29.53,WSW,248,13.0,21.0,24,0.00,,---,0.00,VWS V14.01,2013-03-22 22:49:00,
2013-03-22 16:54:00,45.3,12.4,29.53,West,273,12.0,12.0,26,0.00,,---,0.00,VWS V14.01,2013-03-22 22:54:00,
2013-03-22 16:59:00,45.3,12.4,29.53,WNW,291,5.0,8.0,26,0.00,,---,0.00,VWS V14.01,2013-03-22 22:59:00,
2013-03-22 17:04:00,44.9,13.0,29.53,NNW,329,6.0,21.0,27,0.00,,---,0.00,VWS V14.01,2013-03-22 23:04:00,
2013-03-22 17:09:00,44.1,15.4,29.57,WNW,294,1.0,6.0,31,0.00,,---,0.00,VWS V14.01,2013-03-22 23:09:00,
2013-03-22 17:14:00,44.1,15.4,29.57,WSW,255,11.0,11.0,31,0.00,,---,0.00,VWS V14.01,2013-03-22 23:14:00,
2013-03-22 17:19:00,43.9,18.7,29.56,NE,46,11.0,14.0,36,0.00,,---,0.00,VWS V14.01,2013-03-22 23:19:00,
2013-03-22 17:24:00,42.9,18.4,29.56,East,82,5.0,12.0,37,0.00,,---,0.00,VWS V14.01,2013-03-22 23:24:00,
2013-03-22 17:29:00,42.6,18.2,29.55,ENE,57,6.0,10.0,37,0.00,,---,0.00,VWS V14.01,2013-03-22 23:29:00,
2013-03-22 17:34:00,41.9,19.4,29.57,East,87,8.0,9.0,40,0.00,,---,0.00,VWS V14.01,2013-03-22 23:34:00,
2013-03-22 17:39:00,41.3,18.8,29.58,ENE,67,5.0,13.0,40,0.00,,---,0.00,VWS V14.01,2013-03-22 23:39:00,
2013-03-22 17:44:00,41.1,18.6,29.58,NE,53,4.0,8.0,40,0.00,,---,0.00,VWS V14.01,2013-03-22 23:44:00,
2013-03-22 17:49:00,40.8,19.5,29.58,ENE,74,8.0,11.0,42,0.00,,---,0.00,VWS V14.01,2013-03-22 23:49:00,
2013-03-22 17:54:00,40.1,18.9,29.59,NE,45,5.0,13.0,42,0.00,,---,0.00,VWS V14.01,2013-03-22 23:54:00,
2013-03-22 17:59:00,39.8,19.7,29.59,NE,53,5.0,12.0,44,0.00,,---,0.00,VWS V14.01,2013-03-22 23:59:00,
2013-03-22 18:04:00,39.5,19.9,29.60,East,98,5.0,12.0,45,0.00,,---,0.00,VWS V14.01,2013-03-23 00:04:00,
2013-03-22 18:09:00,39.2,20.2,29.62,ENE,63,5.0,10.0,46,0.00,,---,0.00,VWS V14.01,2013-03-23 00:09:00,
2013-03-22 18:14:00,39.1,19.6,29.62,ENE,71,3.0,8.0,45,0.00,,---,0.00,VWS V14.01,2013-03-23 00:14:00,
2013-03-22 18:19:00,38.9,19.9,29.62,ENE,77,7.0,10.0,46,0.00,,---,0.00,VWS V14.01,2013-03-23 00:19:00,
2013-03-22 18:24:00,38.8,19.3,29.62,NE,56,4.0,6.0,45,0.00,,---,0.00,VWS V14.01,2013-03-23 00:24:00,
2013-03-22 18:29:00,38.8,19.3,29.62,East,80,6.0,8.0,45,0.00,,---,0.00,VWS V14.01,2013-03-23 00:29:00,
2013-03-22 18:34:00,38.8,18.8,29.62,East,85,5.0,9.0,44,0.00,,---,0.00,VWS V14.01,2013-03-23 00:34:00,
2013-03-22 18:39:00,38.8,18.8,29.62,East,101,7.0,9.0,44,0.00,,---,0.00,VWS V14.01,2013-03-23 00:39:00,
2013-03-22 18:44:00,38.7,18.7,29.62,ENE,75,4.0,8.0,44,0.00,,---,0.00,VWS V14.01,2013-03-23 00:44:00,
2013-03-22 18:49:00,38.7,18.7,29.62,East,86,6.0,10.0,44,0.00,,---,0.00,VWS V14.01,2013-03-23 00:49:00,
2013-03-22 18:54:00,38.7,18.1,29.62,ENE,59,4.0,8.0,43,0.00,,---,0.00,VWS V14.01,2013-03-23 00:54:00,
2013-03-22 18:59:00,38.6,18.6,29.62,East,92,4.0,8.0,44,0.00,,---,0.00,VWS V14.01,2013-03-23 00:59:00,
2013-03-22 19:04:00,38.5,18.5,29.62,East,96,4.0,5.0,44,0.00,,---,0.00,VWS V14.01,2013-03-23 01:04:00,
2013-03-22 19:09:00,38.4,18.4,29.62,ENE,76,0.0,7.0,44,0.00,,---,0.00,VWS V14.01,2013-03-23 01:09:00,
2013-03-22 19:14:00,38.3,18.3,29.62,East,95,5.0,6.0,44,0.00,,---,0.00,VWS V14.01,2013-03-23 01:14:00,
2013-03-22 19:19:00,38.2,18.2,29.63,East,93,1.0,5.0,44,0.00,,---,0.00,VWS V14.01,2013-03-23 01:19:00,
2013-03-22 19:24:00,38.0,18.0,29.63,ENE,63,0.0,4.0,44,0.00,,---,0.00,VWS V14.01,2013-03-23 01:24:00,
2013-03-22 19:29:00,37.9,18.0,29.63,ENE,72,0.0,4.0,44,0.00,,---,0.00,VWS V14.01,2013-03-23 01:29:00,
2013-03-22 19:34:00,37.8,17.9,29.64,ENE,75,4.0,4.0,44,0.00,,---,0.00,VWS V14.01,2013-03-23 01:34:00,
2013-03-22 19:39:00,37.8,17.9,29.64,East,79,1.0,5.0,44,0.00,,---,0.00,VWS V14.01,2013-03-23 01:39:00,
2013-03-22 19:44:00,37.7,17.8,29.64,ENE,78,0.0,2.0,44,0.00,,---,0.00,VWS V14.01,2013-03-23 01:44:00,
2013-03-22 19:49:00,37.8,17.9,29.64,East,88,0.0,8.0,44,0.00,,---,0.00,VWS V14.01,2013-03-23 01:49:00,
2013-03-22 19:54:00,37.7,17.2,29.64,East,88,0.0,2.0,43,0.00,,---,0.00,VWS V14.01,2013-03-23 01:54:00,
2013-03-22 19:59:00,37.5,17.6,29.64,ESE,111,1.0,2.0,44,0.00,,---,0.00,VWS V14.01,2013-03-23 01:59:00,
2013-03-22 20:04:00,36.7,18.4,29.67,SSE,163,4.0,5.0,47,0.00,,---,0.00,VWS V14.01,2013-03-23 02:04:00,
2013-03-22 20:09:00,35.7,18.9,29.62,SSE,164,0.0,2.0,50,0.00,,---,0.00,VWS V14.01,2013-03-23 02:09:00,
2013-03-22 20:14:00,35.1,18.8,29.63,SSE,164,0.0,0.0,51,0.00,,---,0.00,VWS V14.01,2013-03-23 02:14:00,
2013-03-22 20:19:00,34.8,19.0,29.64,SSE,164,0.0,0.0,52,0.00,,---,0.00,VWS V14.01,2013-03-23 02:19:00,
2013-03-22 20:24:00,34.6,19.2,29.64,SSE,164,1.0,3.0,53,0.00,,---,0.00,VWS V14.01,2013-03-23 02:24:00,
2013-03-22 20:30:00,34.4,19.5,29.64,SSE,164,0.0,0.0,54,0.00,,---,0.00,VWS V14.01,2013-03-23 02:30:00,
2013-03-22 20:35:00,34.2,19.3,29.64,SSE,164,0.0,2.0,54,0.00,,---,0.00,VWS V14.01,2013-03-23 02:35:00,
2013-03-22 20:40:00,33.9,19.5,29.64,SSE,164,0.0,1.0,55,0.00,,---,0.00,VWS V14.01,2013-03-23 02:40:00,
2013-03-22 20:45:00,33.7,19.3,29.65,SSE,164,0.0,0.0,55,0.00,,---,0.00,VWS V14.01,2013-03-23 02:45:00,
2013-03-22 20:50:00,33.5,19.1,29.65,SSE,164,2.0,2.0,55,0.00,,---,0.00,VWS V14.01,2013-03-23 02:50:00,
2013-03-22 20:55:00,33.1,19.5,29.67,SSE,164,0.0,2.0,57,0.00,,---,0.00,VWS V14.01,2013-03-23 02:55:00,
2013-03-22 21:00:00,32.1,18.6,29.67,ESE,117,0.0,7.0,57,0.00,,---,0.00,VWS V14.01,2013-03-23 03:00:00,
2013-03-22 21:05:00,31.5,18.4,29.67,ESE,117,0.0,2.0,58,0.00,,---,0.00,VWS V14.01,2013-03-23 03:05:00,
2013-03-22 21:10:00,31.3,18.2,29.60,ESE,117,0.0,0.0,58,0.00,,---,0.00,VWS V14.01,2013-03-23 03:10:00,
2013-03-22 21:15:00,31.4,18.4,29.60,ESE,117,0.0,2.0,58,0.00,,---,0.00,VWS V14.01,2013-03-23 03:15:00,
2013-03-22 21:20:00,31.4,18.4,29.60,ESE,117,0.0,0.0,58,0.00,,---,0.00,VWS V14.01,2013-03-23 03:20:00,
2013-03-22 21:25:00,31.2,18.2,29.61,SE,141,5.0,6.0,58,0.00,,---,0.00,VWS V14.01,2013-03-23 03:25:00,
2013-03-22 21:30:00,30.7,18.9,29.60,SE,141,0.0,0.0,61,0.00,,---,0.00,VWS V14.01,2013-03-23 03:30:00,
2013-03-22 21:35:00,30.3,18.9,29.61,SE,141,0.0,1.0,62,0.00,,---,0.00,VWS V14.01,2013-03-23 03:35:00,
2013-03-22 21:40:00,30.1,19.0,29.61,SE,141,0.0,1.0,63,0.00,,---,0.00,VWS V14.01,2013-03-23 03:40:00,
2013-03-22 21:45:00,30.0,19.0,29.61,SE,141,0.0,0.0,63,0.00,,---,0.00,VWS V14.01,2013-03-23 03:45:00,
2013-03-22 21:50:00,29.9,18.9,29.61,SE,141,0.0,0.0,63,0.00,,---,0.00,VWS V14.01,2013-03-23 03:50:00,
2013-03-22 21:55:00,29.7,18.7,29.61,SE,141,0.0,0.0,63,0.00,,---,0.00,VWS V14.01,2013-03-23 03:55:00,
2013-03-22 22:00:00,29.6,18.6,29.61,SE,141,0.0,0.0,63,0.00,,---,0.00,VWS V14.01,2013-03-23 04:00:00,
2013-03-22 22:01:00,29.5,18.5,29.61,SE,141,0.0,0.0,63,0.00,,---,0.00,VWS V14.01,2013-03-23 04:01:00,
2013-03-22 22:06:00,29.3,17.9,29.63,SE,141,0.0,3.0,62,0.00,,---,0.00,VWS V14.01,2013-03-23 04:06:00,
2013-03-22 22:07:00,29.3,17.5,29.63,SE,141,0.0,3.0,61,0.00,,---,0.00,VWS V14.01,2013-03-23 04:07:00,
2013-03-22 22:11:00,29.1,17.7,29.61,SE,141,0.0,2.0,62,0.00,,---,0.00,VWS V14.01,2013-03-23 04:11:00,
2013-03-22 22:16:00,29.2,17.8,29.61,SE,141,0.0,2.0,62,0.00,,---,0.00,VWS V14.01,2013-03-23 04:16:00,
2013-03-22 22:21:00,29.2,17.8,29.61,SE,141,0.0,0.0,62,0.00,,---,0.00,VWS V14.01,2013-03-23 04:21:00,
2013-03-22 22:26:00,29.4,17.2,29.61,SE,141,0.0,0.0,60,0.00,,---,0.00,VWS V14.01,2013-03-23 04:26:00,
2013-03-22 22:31:00,29.7,17.1,29.60,SE,141,0.0,2.0,59,0.00,,---,0.00,VWS V14.01,2013-03-23 04:31:00,
2013-03-22 22:36:00,30.0,17.0,29.60,SE,141,0.0,1.0,58,0.00,,---,0.00,VWS V14.01,2013-03-23 04:36:00,
2013-03-22 22:41:00,30.0,16.6,29.60,SE,141,2.0,4.0,57,0.00,,---,0.00,VWS V14.01,2013-03-23 04:41:00,
2013-03-22 22:46:00,30.3,16.1,29.60,SE,141,4.0,5.0,55,0.00,,---,0.00,VWS V14.01,2013-03-23 04:46:00,